createdAt,value
2018-12-15T00:01:48.476Z,15.30
2018-12-15T00:04:15.882Z,13.83
2018-12-15T00:06:43.285Z,15.67
2018-12-15T00:09:10.679Z,14.97
2018-12-15T00:11:38.169Z,15.10
2018-12-15T00:14:05.617Z,16.23
2018-12-15T00:16:33.088Z,14.90
2018-12-15T00:19:00.581Z,15.00
2018-12-15T00:21:28.002Z,14.50
2018-12-15T00:23:55.376Z,15.53
2018-12-15T00:26:22.781Z,14.53
2018-12-15T00:28:50.221Z,14.53
2018-12-15T00:31:17.620Z,15.80
2018-12-15T00:33:45.022Z,15.00
2018-12-15T00:36:12.457Z,14.47
2018-12-15T00:38:39.974Z,15.10
2018-12-15T00:41:07.409Z,14.80
2018-12-15T00:43:34.818Z,15.90
2018-12-15T00:46:02.276Z,15.67
2018-12-15T00:48:29.746Z,15.53
2018-12-15T00:50:57.252Z,15.27
2018-12-15T00:53:24.721Z,15.50
2018-12-15T00:55:52.109Z,16.50
2018-12-15T00:58:19.576Z,16.80
2018-12-15T01:00:47.023Z,16.40
2018-12-15T01:03:14.433Z,16.00
2018-12-15T01:05:41.933Z,15.63
2018-12-15T01:08:09.382Z,16.07
2018-12-15T01:10:36.754Z,16.93
2018-12-15T01:13:04.148Z,16.67
2018-12-15T01:15:37.210Z,16.63
2018-12-15T01:18:04.602Z,16.83
2018-12-15T01:20:32.006Z,17.70
2018-12-15T01:22:59.394Z,18.10
2018-12-15T01:25:26.822Z,18.17
2018-12-15T01:27:54.217Z,18.70
2018-12-15T01:30:21.632Z,16.70
2018-12-15T01:32:49.022Z,17.27
2018-12-15T01:35:16.508Z,17.63
2018-12-15T01:37:43.900Z,19.80
2018-12-15T01:40:11.338Z,18.27
2018-12-15T01:42:38.769Z,17.30
2018-12-15T01:45:06.474Z,16.93
2018-12-15T01:47:33.851Z,16.10
2018-12-15T01:50:01.243Z,14.93
2018-12-15T01:52:28.633Z,16.03
2018-12-15T01:54:56.221Z,15.80
2018-12-15T01:57:23.672Z,14.60
2018-12-15T01:59:51.080Z,15.70
2018-12-15T02:02:18.460Z,14.90
2018-12-15T02:04:45.866Z,16.13
2018-12-15T02:07:13.269Z,15.50
2018-12-15T02:09:40.668Z,16.20
2018-12-15T02:12:08.140Z,16.00
2018-12-15T02:14:35.616Z,15.70
2018-12-15T02:17:03.018Z,17.10
2018-12-15T02:19:30.665Z,16.03
2018-12-15T02:21:58.075Z,16.10
2018-12-15T02:24:25.534Z,17.03
2018-12-15T02:26:52.958Z,16.93
2018-12-15T02:29:20.450Z,16.73
2018-12-15T02:31:47.873Z,17.80
2018-12-15T02:34:15.288Z,16.43
2018-12-15T02:36:42.749Z,17.10
2018-12-15T02:39:10.191Z,16.53
2018-12-15T02:41:37.601Z,15.80
2018-12-15T02:44:04.989Z,17.07
2018-12-15T02:46:32.453Z,14.53
2018-12-15T02:48:59.850Z,14.47
2018-12-15T02:51:27.265Z,15.33
2018-12-15T02:53:54.642Z,14.60
2018-12-15T02:56:22.114Z,15.80
2018-12-15T02:58:49.513Z,14.67
2018-12-15T03:01:16.936Z,14.10
2018-12-15T03:03:44.340Z,15.73
2018-12-15T03:06:11.763Z,15.90
2018-12-15T03:08:39.179Z,16.13
2018-12-15T03:11:06.611Z,15.97
2018-12-15T03:13:34.092Z,16.20
2018-12-15T03:16:01.532Z,16.67
2018-12-15T03:18:28.919Z,16.37
2018-12-15T03:21:00.186Z,15.93
2018-12-15T03:23:27.715Z,15.47
2018-12-15T03:25:55.170Z,15.50
2018-12-15T03:28:22.550Z,16.67
2018-12-15T03:30:50.019Z,16.00
2018-12-15T03:33:17.456Z,17.17
2018-12-15T03:35:44.839Z,17.80
2018-12-15T03:38:12.229Z,17.77
2018-12-15T03:40:39.640Z,16.77
2018-12-15T03:43:07.120Z,17.00
2018-12-15T03:45:34.567Z,17.90
2018-12-15T03:48:02.061Z,15.97
2018-12-15T03:50:29.525Z,17.10
2018-12-15T03:52:56.933Z,15.40
2018-12-15T03:55:24.336Z,17.93
2018-12-15T03:57:51.758Z,17.07
2018-12-15T04:00:19.134Z,17.20
2018-12-15T04:02:46.549Z,16.35
2018-12-15T04:05:13.966Z,15.37
2018-12-15T04:07:41.476Z,15.15
2018-12-15T04:10:08.925Z,14.87
2018-12-15T04:12:36.321Z,15.85
2018-12-15T04:15:05.166Z,15.80
2018-12-15T04:17:32.662Z,16.10
2018-12-15T04:20:00.066Z,17.00
2018-12-15T04:22:27.559Z,16.00
2018-12-15T04:24:55.037Z,15.83
2018-12-15T04:27:22.452Z,15.63
2018-12-15T04:29:49.863Z,16.00
2018-12-15T04:32:17.271Z,17.00
2018-12-15T04:34:44.697Z,15.00
2018-12-15T04:37:12.121Z,15.40
2018-12-15T04:39:39.574Z,15.20
2018-12-15T04:42:07.042Z,14.90
2018-12-15T04:44:34.530Z,16.67
2018-12-15T04:47:02.387Z,16.40
2018-12-15T04:49:29.913Z,15.72
2018-12-15T04:51:57.385Z,16.20
2018-12-15T04:54:24.788Z,15.90
2018-12-15T04:56:52.165Z,16.30
2018-12-15T04:59:19.606Z,15.80
2018-12-15T05:01:47.056Z,14.90
2018-12-15T05:04:14.546Z,14.90
2018-12-15T05:06:41.920Z,14.50
2018-12-15T05:09:09.329Z,14.10
2018-12-15T05:11:36.780Z,16.07
2018-12-15T05:14:04.225Z,14.90
2018-12-15T05:16:31.651Z,15.40
2018-12-15T05:18:59.056Z,15.73
2018-12-15T05:21:26.540Z,14.73
2018-12-15T05:23:54.029Z,16.50
2018-12-15T05:26:21.520Z,16.00
2018-12-15T05:28:48.986Z,15.40
2018-12-15T05:31:16.449Z,16.33
2018-12-15T05:33:43.930Z,15.97
2018-12-15T05:36:11.534Z,15.97
2018-12-15T05:38:38.921Z,17.93
2018-12-15T05:41:06.494Z,15.50
2018-12-15T05:43:33.930Z,15.33
2018-12-15T05:46:01.341Z,16.77
2018-12-15T05:48:28.742Z,14.63
2018-12-15T05:50:56.195Z,15.67
2018-12-15T05:53:23.575Z,14.90
2018-12-15T05:55:50.988Z,16.00
2018-12-15T05:58:18.544Z,15.70
2018-12-15T06:00:45.964Z,15.00
2018-12-15T06:03:13.386Z,15.17
2018-12-15T06:05:40.776Z,15.57
2018-12-15T06:08:08.205Z,16.73
2018-12-15T06:10:35.610Z,16.23
2018-12-15T06:13:03.027Z,16.10
2018-12-15T06:15:30.486Z,15.43
2018-12-15T06:17:57.878Z,16.33
2018-12-15T06:20:25.285Z,15.28
2018-12-15T06:22:52.702Z,15.00
2018-12-15T06:25:20.125Z,16.30
2018-12-15T06:27:47.535Z,16.50
2018-12-15T06:30:14.962Z,16.73
2018-12-15T06:32:42.416Z,16.17
2018-12-15T06:35:09.790Z,16.77
2018-12-15T06:37:37.261Z,15.80
2018-12-15T06:40:06.052Z,15.30
2018-12-15T06:42:33.450Z,15.70
2018-12-15T06:45:00.852Z,16.93
2018-12-15T06:47:28.255Z,16.30
2018-12-15T06:49:55.666Z,16.27
2018-12-15T06:52:23.061Z,16.33
2018-12-15T06:54:50.455Z,17.20
2018-12-15T06:57:17.833Z,16.67
2018-12-15T06:59:45.310Z,16.77
2018-12-15T07:02:12.792Z,16.25
2018-12-15T07:04:40.193Z,16.13
2018-12-15T07:07:07.592Z,16.13
2018-12-15T07:09:35.002Z,15.30
2018-12-15T07:12:02.432Z,16.00
2018-12-15T07:14:29.836Z,15.60
2018-12-15T07:16:57.384Z,16.77
2018-12-15T07:19:24.881Z,17.48
2018-12-15T07:21:52.315Z,15.80
2018-12-15T07:24:19.737Z,15.13
2018-12-15T07:26:47.155Z,16.23
2018-12-15T07:29:14.563Z,16.40
2018-12-15T07:31:41.961Z,16.60
2018-12-15T07:34:09.408Z,17.32
2018-12-15T07:36:36.806Z,16.87
2018-12-15T07:39:06.176Z,17.73
2018-12-15T07:41:33.596Z,17.50
2018-12-15T07:44:01.005Z,17.37
2018-12-15T07:46:28.501Z,16.95
2018-12-15T07:48:55.925Z,17.50
2018-12-15T07:51:23.391Z,17.13
2018-12-15T07:53:51.237Z,17.13
2018-12-15T07:56:20.585Z,17.33
2018-12-15T07:58:47.969Z,16.90
2018-12-15T08:01:15.369Z,17.60
2018-12-15T08:03:42.836Z,15.73
2018-12-15T08:06:10.222Z,18.90
2018-12-15T08:08:37.755Z,17.83
2018-12-15T08:11:10.684Z,16.60
2018-12-15T08:13:40.105Z,18.02
2018-12-15T08:16:07.522Z,17.70
2018-12-15T08:18:35.045Z,17.43
2018-12-15T08:21:02.516Z,18.80
2018-12-15T08:23:29.948Z,15.90
2018-12-15T08:25:57.360Z,18.90
2018-12-15T08:28:24.809Z,17.13
2018-12-15T08:30:52.405Z,18.75
2018-12-15T08:33:19.820Z,20.07
2018-12-15T08:35:47.245Z,19.00
2018-12-15T08:38:14.670Z,19.73
2018-12-15T08:40:43.329Z,19.40
2018-12-15T08:43:10.867Z,18.25
2018-12-15T08:45:38.280Z,18.80
2018-12-15T08:48:05.662Z,20.70
2018-12-15T08:50:33.127Z,19.20
2018-12-15T08:53:00.554Z,19.53
2018-12-15T08:55:27.960Z,18.67
2018-12-15T08:57:55.361Z,19.53
2018-12-15T09:00:22.768Z,20.30
2018-12-15T09:02:50.185Z,17.93
2018-12-15T09:05:17.825Z,17.57
2018-12-15T09:07:45.244Z,18.20
2018-12-15T09:10:12.704Z,19.03
2018-12-15T09:12:40.152Z,18.63
2018-12-15T09:15:07.700Z,17.75
2018-12-15T09:17:35.069Z,18.00
2018-12-15T09:20:02.728Z,17.50
2018-12-15T09:22:30.105Z,17.87
2018-12-15T09:24:57.504Z,17.33
2018-12-15T09:27:24.897Z,18.70
2018-12-15T09:29:52.287Z,16.87
2018-12-15T09:32:19.706Z,19.10
2018-12-15T09:34:47.191Z,17.53
2018-12-15T09:37:14.824Z,16.83
2018-12-15T09:39:42.213Z,15.77
2018-12-15T09:42:09.730Z,17.20
2018-12-15T09:44:37.107Z,16.33
2018-12-15T09:47:04.585Z,16.10
2018-12-15T09:49:32.101Z,17.83
2018-12-15T09:51:59.507Z,16.53
2018-12-15T09:54:26.892Z,15.70
2018-12-15T09:56:54.322Z,17.10
2018-12-15T09:59:21.820Z,17.20
2018-12-15T10:01:49.296Z,15.40
2018-12-15T10:04:16.728Z,16.23
2018-12-15T10:06:44.308Z,15.67
2018-12-15T10:09:11.706Z,16.97
2018-12-15T10:11:39.122Z,14.20
2018-12-15T10:14:06.532Z,16.00
2018-12-15T10:16:33.999Z,15.57
2018-12-15T10:19:01.458Z,15.73
2018-12-15T10:21:28.838Z,15.67
2018-12-15T10:23:56.269Z,14.93
2018-12-15T10:26:23.795Z,15.87
2018-12-15T10:28:51.319Z,16.20
2018-12-15T10:31:24.434Z,16.07
2018-12-15T10:33:51.839Z,15.33
2018-12-15T10:36:19.402Z,15.57
2018-12-15T10:38:47.207Z,16.30
2018-12-15T10:41:14.625Z,15.80
2018-12-15T10:43:42.089Z,16.03
2018-12-15T10:46:09.529Z,17.57
2018-12-15T10:48:37.258Z,16.67
2018-12-15T10:51:04.661Z,16.93
2018-12-15T10:53:32.083Z,15.60
2018-12-15T10:55:59.704Z,16.33
2018-12-15T10:58:27.180Z,16.70
2018-12-15T11:00:56.399Z,16.50
2018-12-15T11:03:23.868Z,15.70
2018-12-15T11:05:51.386Z,15.80
2018-12-15T11:08:18.795Z,16.17
2018-12-15T11:10:46.243Z,15.95
2018-12-15T11:13:13.674Z,16.30
2018-12-15T11:15:41.128Z,16.50
2018-12-15T11:18:09.392Z,16.90
2018-12-15T11:20:36.876Z,16.47
2018-12-15T11:23:04.262Z,16.03
2018-12-15T11:25:31.649Z,16.80
2018-12-15T11:27:59.064Z,15.63
2018-12-15T11:30:26.474Z,16.73
2018-12-15T11:32:53.864Z,17.17
2018-12-15T11:35:21.313Z,16.37
2018-12-15T11:37:49.349Z,16.63
2018-12-15T11:40:16.718Z,17.50
2018-12-15T11:42:44.273Z,18.03
2018-12-15T11:45:11.797Z,16.50
2018-12-15T11:47:39.182Z,17.10
2018-12-15T11:50:07.142Z,21.53
2018-12-15T11:52:34.644Z,18.70
2018-12-15T11:55:02.098Z,16.60
2018-12-15T11:57:29.499Z,16.80
2018-12-15T11:59:56.945Z,16.57
2018-12-15T12:02:24.349Z,16.07
2018-12-15T12:04:51.791Z,15.87
2018-12-15T12:07:19.276Z,16.07
2018-12-15T12:09:46.678Z,17.30
2018-12-15T12:12:14.088Z,17.73
2018-12-15T12:14:41.561Z,16.80
2018-12-15T12:17:09.118Z,17.33
2018-12-15T12:19:36.525Z,19.70
2018-12-15T12:22:04.896Z,16.23
2018-12-15T12:24:32.315Z,17.37
2018-12-15T12:26:59.774Z,17.43
2018-12-15T12:29:27.450Z,17.57
2018-12-15T12:31:55.075Z,17.90
2018-12-15T12:34:22.730Z,16.70
2018-12-15T12:36:50.333Z,17.53
2018-12-15T12:39:17.751Z,18.57
2018-12-15T12:41:45.177Z,18.47
2018-12-15T12:44:12.578Z,17.80
2018-12-15T12:46:40.161Z,17.80
2018-12-15T12:49:07.591Z,17.27
2018-12-15T12:51:34.960Z,16.40
2018-12-15T12:54:02.532Z,17.07
2018-12-15T12:56:29.981Z,16.30
2018-12-15T12:58:57.407Z,15.70
2018-12-15T13:01:24.822Z,16.03
2018-12-15T13:03:52.220Z,17.70
2018-12-15T13:06:19.642Z,16.20
2018-12-15T13:08:47.901Z,15.80
2018-12-15T13:11:15.342Z,15.13
2018-12-15T13:13:42.812Z,15.57
2018-12-15T13:16:10.674Z,16.40
2018-12-15T13:18:38.171Z,15.23
2018-12-15T13:21:05.565Z,14.93
2018-12-15T13:23:33.168Z,16.47
2018-12-15T13:26:00.918Z,17.50
2018-12-15T13:28:28.342Z,15.30
2018-12-15T13:30:55.720Z,17.10
2018-12-15T13:33:31.738Z,16.97
2018-12-15T13:35:59.151Z,14.83
2018-12-15T13:38:26.586Z,17.53
2018-12-15T13:40:54.110Z,16.67
2018-12-15T13:43:21.598Z,16.90
2018-12-15T13:45:49.194Z,17.03
2018-12-15T13:48:16.626Z,16.87
2018-12-15T13:50:44.039Z,15.80
2018-12-15T13:53:11.492Z,15.03
2018-12-15T13:55:39.013Z,16.90
2018-12-15T13:58:06.875Z,17.17
2018-12-15T14:00:34.349Z,16.57
2018-12-15T14:03:01.723Z,15.60
2018-12-15T14:05:29.198Z,15.27
2018-12-15T14:07:56.625Z,17.10
2018-12-15T14:10:24.072Z,18.80
2018-12-15T14:12:51.678Z,15.77
2018-12-15T14:15:19.189Z,16.70
2018-12-15T14:17:46.679Z,18.10
2018-12-15T14:20:16.986Z,14.50
2018-12-15T14:22:43.654Z,17.37
2018-12-15T14:25:11.023Z,15.97
2018-12-15T14:27:38.431Z,16.20
2018-12-15T14:30:07.491Z,15.17
2018-12-15T14:32:35.031Z,15.20
2018-12-15T14:35:02.475Z,15.17
2018-12-15T14:37:29.844Z,18.00
2018-12-15T14:39:57.386Z,16.80
2018-12-15T14:42:24.874Z,13.80
2018-12-15T14:44:53.864Z,15.60
2018-12-15T14:47:21.549Z,14.43
2018-12-15T14:49:48.941Z,14.97
2018-12-15T14:52:16.333Z,16.40
2018-12-15T14:54:43.785Z,15.20
2018-12-15T14:57:11.170Z,15.80
2018-12-15T14:59:38.585Z,15.77
2018-12-15T15:02:06.035Z,15.63
2018-12-15T15:04:33.517Z,15.83
2018-12-15T15:07:00.953Z,15.10
2018-12-15T15:09:28.372Z,15.90
2018-12-15T15:11:55.750Z,18.20
2018-12-15T15:14:23.163Z,15.73
2018-12-15T15:16:50.589Z,15.05
2018-12-15T15:19:17.997Z,15.33
2018-12-15T15:21:45.399Z,15.35
2018-12-15T15:24:12.809Z,17.00
2018-12-15T15:26:40.221Z,14.83
2018-12-15T15:29:07.682Z,16.23
2018-12-15T15:31:35.072Z,16.90
2018-12-15T15:34:02.479Z,15.48
2018-12-15T15:36:29.878Z,15.13
2018-12-15T15:38:58.221Z,14.45
2018-12-15T15:41:25.784Z,15.95
2018-12-15T15:43:53.269Z,15.15
2018-12-15T15:46:21.650Z,15.97
2018-12-15T15:48:49.067Z,16.50
2018-12-15T15:51:16.463Z,17.70
2018-12-15T15:53:43.881Z,16.00
2018-12-15T15:56:11.291Z,16.45
2018-12-15T15:58:38.690Z,15.85
2018-12-15T16:01:06.138Z,15.48
2018-12-15T16:03:33.635Z,16.48
2018-12-15T16:06:01.058Z,15.90
2018-12-15T16:08:28.489Z,16.37
2018-12-15T16:10:55.908Z,17.97
2018-12-15T16:13:23.323Z,15.75
2018-12-15T16:15:50.833Z,15.28
2018-12-15T16:18:18.278Z,16.00
2018-12-15T16:20:45.778Z,16.82
2018-12-15T16:23:13.246Z,15.53
2018-12-15T16:25:40.725Z,16.75
2018-12-15T16:28:08.128Z,16.05
2018-12-15T16:30:35.561Z,15.60
2018-12-15T16:33:02.986Z,16.02
2018-12-15T16:35:30.569Z,16.10
2018-12-15T16:37:58.029Z,16.00
2018-12-15T16:40:25.503Z,16.75
2018-12-15T16:42:52.967Z,16.32
2018-12-15T16:45:20.369Z,15.83
2018-12-15T16:47:47.783Z,15.25
2018-12-15T16:50:15.168Z,18.23
2018-12-15T16:52:43.344Z,17.93
2018-12-15T16:55:11.276Z,17.82
2018-12-15T16:57:38.676Z,17.43
2018-12-15T17:00:08.661Z,17.87
2018-12-15T17:02:36.057Z,17.55
2018-12-15T17:05:04.573Z,16.90
2018-12-15T17:07:32.009Z,16.47
2018-12-15T17:09:59.445Z,16.85
2018-12-15T17:12:26.868Z,17.82
2018-12-15T17:14:54.254Z,16.25
2018-12-15T17:17:21.753Z,17.12
2018-12-15T17:19:49.182Z,16.37
2018-12-15T17:22:16.565Z,17.62
2018-12-15T17:24:44.360Z,16.97
2018-12-15T17:27:15.681Z,17.12
2018-12-15T17:29:43.085Z,18.02
2018-12-15T17:32:10.505Z,17.25
2018-12-15T17:34:37.906Z,16.32
2018-12-15T17:37:05.333Z,16.17
2018-12-15T17:39:32.865Z,15.60
2018-12-15T17:42:00.284Z,16.25
2018-12-15T17:44:27.685Z,16.00
2018-12-15T17:46:55.089Z,16.90
2018-12-15T17:49:22.524Z,16.60
2018-12-15T17:51:49.923Z,16.30
2018-12-15T17:54:17.327Z,15.68
2018-12-15T17:56:44.726Z,15.32
2018-12-15T17:59:12.276Z,15.70
2018-12-15T18:01:39.694Z,16.07
2018-12-15T18:04:07.087Z,17.98
2018-12-15T18:06:34.514Z,16.48
2018-12-15T18:09:01.994Z,17.37
2018-12-15T18:11:29.393Z,18.00
2018-12-15T18:13:56.808Z,16.93
2018-12-15T18:16:24.231Z,16.82
2018-12-15T18:18:51.755Z,16.32
2018-12-15T18:21:19.305Z,17.80
2018-12-15T18:23:46.982Z,16.55
2018-12-15T18:26:14.413Z,16.62
2018-12-15T18:28:41.827Z,17.15
2018-12-15T18:31:09.224Z,17.05
2018-12-15T18:33:37.086Z,17.62
2018-12-15T18:36:04.695Z,16.75
2018-12-15T18:38:32.137Z,17.50
2018-12-15T18:40:59.570Z,16.25
2018-12-15T18:43:26.979Z,17.70
2018-12-15T18:45:55.168Z,16.70
2018-12-15T18:48:22.542Z,18.15
2018-12-15T18:50:49.980Z,16.85
2018-12-15T18:53:17.435Z,16.85
2018-12-15T18:55:44.939Z,17.02
2018-12-15T18:58:12.361Z,18.07
2018-12-15T19:00:39.800Z,19.35
2018-12-15T19:03:07.197Z,18.52
2018-12-15T19:05:34.621Z,17.85
2018-12-15T19:08:02.069Z,19.52
2018-12-15T19:10:29.495Z,16.85
2018-12-15T19:12:56.890Z,17.67
2018-12-15T19:15:24.319Z,16.70
2018-12-15T19:17:51.717Z,18.15
2018-12-15T19:20:19.219Z,18.60
2018-12-15T19:22:46.698Z,18.20
2018-12-15T19:25:14.233Z,19.60
2018-12-15T19:27:41.914Z,19.20
2018-12-15T19:30:09.519Z,18.95
2018-12-15T19:32:36.959Z,19.42
2018-12-15T19:35:04.896Z,19.37
2018-12-15T19:37:32.322Z,18.20
2018-12-15T19:39:59.716Z,19.62
2018-12-15T19:42:27.126Z,19.40
2018-12-15T19:44:54.612Z,19.12
2018-12-15T19:47:22.056Z,19.48
2018-12-15T19:49:49.495Z,18.02
2018-12-15T19:52:16.914Z,18.57
2018-12-15T19:54:44.369Z,17.55
2018-12-15T19:57:11.861Z,18.27
2018-12-15T19:59:39.329Z,19.35
2018-12-15T20:02:06.773Z,18.77
2018-12-15T20:04:34.181Z,19.80
2018-12-15T20:07:01.611Z,18.90
2018-12-15T20:09:29.106Z,19.17
2018-12-15T20:11:56.584Z,18.77
2018-12-15T20:14:24.050Z,18.48
2018-12-15T20:16:51.450Z,20.17
2018-12-15T20:19:18.910Z,19.55
2018-12-15T20:21:46.360Z,19.90
2018-12-15T20:24:13.832Z,19.80
2018-12-15T20:26:41.262Z,18.17
2018-12-15T20:29:08.658Z,19.40
2018-12-15T20:31:36.079Z,20.65
2018-12-15T20:34:03.542Z,20.23
2018-12-15T20:36:30.977Z,19.60
2018-12-15T20:38:58.389Z,17.90
2018-12-15T20:41:25.854Z,19.10
2018-12-15T20:43:53.349Z,20.12
2018-12-15T20:46:20.805Z,19.90
2018-12-15T20:48:48.186Z,18.50
2018-12-15T20:51:15.617Z,18.85
2018-12-15T20:53:43.006Z,18.95
2018-12-15T20:56:10.489Z,17.77
2018-12-15T20:58:37.894Z,18.75
2018-12-15T21:01:06.070Z,18.87
2018-12-15T21:03:33.464Z,19.17
2018-12-15T21:06:00.980Z,18.87
2018-12-15T21:08:28.369Z,18.10
2018-12-15T21:10:55.805Z,19.55
2018-12-15T21:13:23.364Z,20.00
2018-12-15T21:15:52.699Z,19.80
2018-12-15T21:18:20.127Z,19.30
2018-12-15T21:20:47.605Z,19.02
2018-12-15T21:23:15.077Z,19.80
2018-12-15T21:25:42.508Z,19.12
2018-12-15T21:28:09.906Z,19.12
2018-12-15T21:30:37.301Z,19.15
2018-12-15T21:33:04.701Z,17.62
2018-12-15T21:35:32.178Z,17.45
2018-12-15T21:37:59.590Z,18.85
2018-12-15T21:40:27.036Z,17.62
2018-12-15T21:42:54.511Z,19.40
2018-12-15T21:45:22.012Z,19.02
2018-12-15T21:47:57.369Z,17.15
2018-12-15T21:50:20.411Z,19.12
2018-12-15T21:52:47.868Z,17.87
2018-12-15T21:55:15.273Z,19.10
2018-12-15T21:57:42.720Z,17.48
2018-12-15T22:00:10.281Z,18.48
2018-12-15T22:02:37.652Z,16.67
2018-12-15T22:05:05.493Z,17.87
2018-12-15T22:07:32.905Z,17.62
2018-12-15T22:10:00.309Z,18.37
2018-12-15T22:12:27.757Z,19.30
2018-12-15T22:14:55.138Z,18.92
2018-12-15T22:17:22.535Z,19.45
2018-12-15T22:19:49.951Z,18.05
2018-12-15T22:22:17.354Z,18.75
2018-12-15T22:24:44.837Z,17.90
2018-12-15T22:27:12.246Z,18.80
2018-12-15T22:29:39.689Z,18.32
2018-12-15T22:32:07.106Z,18.07
2018-12-15T22:34:34.592Z,17.95
2018-12-15T22:37:02.032Z,18.50
2018-12-15T22:39:29.438Z,18.73
2018-12-15T22:41:56.882Z,19.23
2018-12-15T22:44:24.366Z,16.57
2018-12-15T22:46:51.781Z,18.82
2018-12-15T22:49:19.329Z,17.85
2018-12-15T22:51:46.717Z,19.32
2018-12-15T22:54:14.123Z,18.10
2018-12-15T22:56:41.515Z,18.60
2018-12-15T22:59:08.995Z,20.02
2018-12-15T23:04:15.691Z,19.60
2018-12-15T23:06:43.192Z,20.32
2018-12-15T23:09:10.598Z,20.35
2018-12-15T23:11:38.034Z,19.90
2018-12-15T23:14:05.473Z,22.05
2018-12-15T23:16:32.865Z,20.37
2018-12-15T23:19:00.263Z,20.75
2018-12-15T23:21:27.701Z,20.37
2018-12-15T23:23:55.188Z,19.10
2018-12-15T23:26:22.657Z,20.08
2018-12-15T23:28:50.095Z,18.82
2018-12-15T23:31:17.476Z,19.85
2018-12-15T23:33:44.865Z,19.50
2018-12-15T23:36:12.276Z,19.75
2018-12-15T23:38:39.672Z,18.92
2018-12-15T23:41:07.250Z,19.32
2018-12-15T23:43:34.625Z,19.75
2018-12-15T23:46:02.042Z,20.35
2018-12-15T23:48:29.509Z,20.52
2018-12-15T23:50:56.894Z,20.02
2018-12-15T23:53:24.316Z,20.32
2018-12-15T23:55:51.703Z,20.45
2018-12-15T23:58:19.101Z,19.12
